createdAt,value
2019-05-14T00:00:52.410Z,70.24
2019-05-14T00:01:51.767Z,70.45
2019-05-14T00:02:52.158Z,70.45
2019-05-14T00:03:51.796Z,70.14
2019-05-14T00:04:51.736Z,70.24
2019-05-14T00:05:51.946Z,70.24
2019-05-14T00:06:52.024Z,70.65
2019-05-14T00:07:52.229Z,70.65
2019-05-14T00:08:52.314Z,71.00
2019-05-14T00:09:52.017Z,70.68
2019-05-14T00:10:52.161Z,70.58
2019-05-14T00:11:51.661Z,70.37
2019-05-14T00:12:51.651Z,70.79
2019-05-14T00:13:52.161Z,71.00
2019-05-14T00:14:51.809Z,71.00
2019-05-14T00:15:52.175Z,71.20
2019-05-14T00:16:51.606Z,71.44
2019-05-14T00:17:52.265Z,71.61
2019-05-14T00:18:51.587Z,71.23
2019-05-14T00:20:05.831Z,71.10
2019-05-14T00:20:52.600Z,71.72
2019-05-14T00:21:51.554Z,71.44
2019-05-14T00:22:52.215Z,71.64
2019-05-14T00:23:51.567Z,71.75
2019-05-14T00:24:52.116Z,71.85
2019-05-14T00:25:52.293Z,71.95
2019-05-14T00:26:51.793Z,72.47
2019-05-14T00:27:51.861Z,72.78
2019-05-14T00:28:51.477Z,72.27
2019-05-14T00:29:51.926Z,72.47
2019-05-14T00:30:52.430Z,72.67
2019-05-14T00:31:51.742Z,72.37
2019-05-14T00:32:52.022Z,72.88
2019-05-14T00:33:51.463Z,73.12
2019-05-14T00:34:51.783Z,73.02
2019-05-14T00:35:51.639Z,72.30
2019-05-14T00:36:52.495Z,72.19
2019-05-14T00:37:52.094Z,72.78
2019-05-14T00:38:51.518Z,72.50
2019-05-14T00:39:52.066Z,72.47
2019-05-14T00:40:51.570Z,73.43
2019-05-14T00:41:51.437Z,73.95
2019-05-14T00:42:53.241Z,73.85
2019-05-14T00:43:51.566Z,73.88
2019-05-14T00:44:56.946Z,74.40
2019-05-14T00:45:52.291Z,74.26
2019-05-14T00:46:51.792Z,74.36
2019-05-14T00:47:52.480Z,74.46
2019-05-14T00:48:51.640Z,74.40
2019-05-14T00:49:51.910Z,73.98
2019-05-14T00:50:51.802Z,74.08
2019-05-14T00:51:51.994Z,74.60
2019-05-14T00:52:51.784Z,74.91
2019-05-14T00:53:51.697Z,74.40
2019-05-14T00:54:52.217Z,73.88
2019-05-14T00:55:51.778Z,73.98
2019-05-14T00:56:52.145Z,73.98
2019-05-14T00:57:52.198Z,74.08
2019-05-14T00:58:52.187Z,73.98
2019-05-14T00:59:52.189Z,74.40
2019-05-14T01:00:52.577Z,74.36
2019-05-14T01:01:51.600Z,73.98
2019-05-14T01:02:51.768Z,74.29
2019-05-14T01:03:52.064Z,74.29
2019-05-14T01:04:51.576Z,74.08
2019-05-14T01:05:52.147Z,74.40
2019-05-14T01:06:51.274Z,74.29
2019-05-14T01:07:51.516Z,74.19
2019-05-14T01:08:51.844Z,74.40
2019-05-14T01:09:52.346Z,73.98
2019-05-14T01:10:51.368Z,74.19
2019-05-14T01:11:51.397Z,74.29
2019-05-14T01:12:52.027Z,74.40
2019-05-14T01:13:52.183Z,74.26
2019-05-14T01:14:52.846Z,74.05
2019-05-14T01:15:52.318Z,74.29
2019-05-14T01:16:51.500Z,74.40
2019-05-14T01:17:51.629Z,74.46
2019-05-14T01:18:51.346Z,74.29
2019-05-14T01:19:51.437Z,74.40
2019-05-14T01:20:51.906Z,73.88
2019-05-14T01:21:51.179Z,75.12
2019-05-14T01:22:51.573Z,75.15
2019-05-14T01:23:51.385Z,75.12
2019-05-14T01:24:52.237Z,75.05
2019-05-14T01:25:51.683Z,75.01
2019-05-14T01:26:52.233Z,75.32
2019-05-14T01:27:51.814Z,75.36
2019-05-14T01:28:51.358Z,75.77
2019-05-14T01:29:51.384Z,75.98
2019-05-14T01:30:51.847Z,76.32
2019-05-14T01:31:51.981Z,76.22
2019-05-14T01:32:51.310Z,76.32
2019-05-14T01:33:51.515Z,76.43
2019-05-14T01:34:52.267Z,76.94
2019-05-14T01:35:51.390Z,76.73
2019-05-14T01:36:52.821Z,76.64
2019-05-14T01:37:52.173Z,76.94
2019-05-14T01:38:51.332Z,76.73
2019-05-14T01:39:51.982Z,76.53
2019-05-14T01:40:52.409Z,76.73
2019-05-14T01:41:51.655Z,77.46
2019-05-14T01:42:52.265Z,76.73
2019-05-14T01:43:51.277Z,76.73
2019-05-14T01:44:52.007Z,76.73
2019-05-14T01:45:52.358Z,77.36
2019-05-14T01:46:51.267Z,77.56
2019-05-14T01:47:52.064Z,77.70
2019-05-14T01:48:52.143Z,77.60
2019-05-14T01:49:51.577Z,77.67
2019-05-14T01:50:52.068Z,77.29
2019-05-14T01:51:51.203Z,77.91
2019-05-14T01:52:52.099Z,78.01
2019-05-14T01:53:52.100Z,78.42
2019-05-14T01:54:51.554Z,78.01
2019-05-14T01:55:51.997Z,77.91
2019-05-14T01:56:51.495Z,77.84
2019-05-14T01:57:51.831Z,78.36
2019-05-14T01:58:52.263Z,78.88
2019-05-14T01:59:51.626Z,79.08
2019-05-14T02:00:52.361Z,78.77
2019-05-14T02:01:51.774Z,79.39
2019-05-14T02:02:52.496Z,79.60
2019-05-14T02:03:51.751Z,79.70
2019-05-14T02:04:51.340Z,79.80
2019-05-14T02:05:52.043Z,80.01
2019-05-14T02:06:51.488Z,79.70
2019-05-14T02:07:52.427Z,79.70
2019-05-14T02:08:51.461Z,79.49
2019-05-14T02:09:51.762Z,79.70
2019-05-14T02:10:52.429Z,79.49
2019-05-14T02:11:51.854Z,79.60
2019-05-14T02:12:51.519Z,79.70
2019-05-14T02:13:51.888Z,79.60
2019-05-14T02:14:51.213Z,79.49
2019-05-14T02:15:52.008Z,79.49
2019-05-14T02:16:51.202Z,79.49
2019-05-14T02:17:51.894Z,79.29
2019-05-14T02:18:52.273Z,79.39
2019-05-14T02:19:51.459Z,79.49
2019-05-14T02:20:52.162Z,79.49
2019-05-14T02:21:51.455Z,79.39
2019-05-14T02:22:52.285Z,79.49
2019-05-14T02:23:51.393Z,78.98
2019-05-14T02:24:51.955Z,79.49
2019-05-14T02:25:51.882Z,79.19
2019-05-14T02:26:51.431Z,78.98
2019-05-14T02:27:51.934Z,79.60
2019-05-14T02:28:51.363Z,79.91
2019-05-14T02:29:51.922Z,79.80
2019-05-14T02:30:57.518Z,80.15
2019-05-14T02:31:51.185Z,80.26
2019-05-14T02:32:50.186Z,80.46
2019-05-14T02:33:50.731Z,80.22
2019-05-14T02:34:50.350Z,80.22
2019-05-14T02:35:50.144Z,80.01
2019-05-14T02:36:50.111Z,80.11
2019-05-14T02:37:50.614Z,80.22
2019-05-14T02:38:50.090Z,80.11
2019-05-14T02:39:50.463Z,80.01
2019-05-14T02:40:50.070Z,79.91
2019-05-14T02:41:50.161Z,79.91
2019-05-14T02:42:50.132Z,80.11
2019-05-14T02:43:50.557Z,79.80
2019-05-14T02:44:50.027Z,80.11
2019-05-14T02:46:02.046Z,80.11
2019-05-14T02:46:51.006Z,80.22
2019-05-14T02:47:50.534Z,80.01
2019-05-14T02:48:49.987Z,80.22
2019-05-14T02:49:50.425Z,80.32
2019-05-14T02:50:49.991Z,80.32
2019-05-14T02:51:50.572Z,80.43
2019-05-14T02:52:50.038Z,80.32
2019-05-14T02:53:50.056Z,80.22
2019-05-14T02:54:49.923Z,80.11
2019-05-14T02:55:50.105Z,80.11
2019-05-14T02:56:49.917Z,79.91
2019-05-14T02:57:50.330Z,79.91
2019-05-14T02:58:50.186Z,79.91
2019-05-14T02:59:50.512Z,79.80
2019-05-14T03:00:49.865Z,80.11
2019-05-14T03:01:50.520Z,80.22
2019-05-14T03:02:49.869Z,80.43
2019-05-14T03:03:49.832Z,80.74
2019-05-14T03:04:50.194Z,81.09
2019-05-14T03:05:49.897Z,81.09
2019-05-14T03:06:50.100Z,81.39
2019-05-14T03:07:50.286Z,81.39
2019-05-14T03:08:49.830Z,81.70
2019-05-14T03:09:50.424Z,82.12
2019-05-14T03:10:50.591Z,82.01
2019-05-14T03:11:49.747Z,82.01
2019-05-14T03:12:50.362Z,82.05
2019-05-14T03:13:49.837Z,82.32
2019-05-14T03:14:50.198Z,82.78
2019-05-14T03:15:50.089Z,82.01
2019-05-14T03:16:49.961Z,82.64
2019-05-14T03:17:49.757Z,82.22
2019-05-14T03:18:50.332Z,82.32
2019-05-14T03:19:49.879Z,82.05
2019-05-14T03:20:50.421Z,82.32
2019-05-14T03:21:50.270Z,83.15
2019-05-14T03:23:02.576Z,82.32
2019-05-14T03:23:50.610Z,82.22
2019-05-14T03:24:50.259Z,82.64
2019-05-14T03:25:49.696Z,83.05
2019-05-14T03:26:50.190Z,82.98
2019-05-14T03:27:49.974Z,83.29
2019-05-14T03:28:50.041Z,83.71
2019-05-14T03:29:50.139Z,83.50
2019-05-14T03:30:52.569Z,83.91
2019-05-14T03:31:52.600Z,84.22
2019-05-14T03:32:52.874Z,84.64
2019-05-14T03:33:52.604Z,84.78
2019-05-14T03:34:53.227Z,84.64
2019-05-14T03:35:58.044Z,84.68
2019-05-14T03:36:52.852Z,84.53
2019-05-14T03:37:49.989Z,84.53
2019-05-14T03:38:50.204Z,84.22
2019-05-14T03:39:49.598Z,84.33
2019-05-14T03:40:49.762Z,84.22
2019-05-14T03:41:50.057Z,84.43
2019-05-14T03:42:49.419Z,84.74
2019-05-14T03:43:49.793Z,84.64
2019-05-14T03:44:49.413Z,84.95
2019-05-14T03:45:49.839Z,84.64
2019-05-14T03:46:55.233Z,84.53
2019-05-14T03:47:50.811Z,84.99
2019-05-14T03:48:49.526Z,84.99
2019-05-14T03:49:49.988Z,84.95
2019-05-14T03:50:49.770Z,85.09
2019-05-14T03:51:49.944Z,84.99
2019-05-14T03:52:50.035Z,85.47
2019-05-14T03:54:01.346Z,85.57
2019-05-14T03:54:50.274Z,84.95
2019-05-14T03:55:50.531Z,85.36
2019-05-14T03:56:49.822Z,85.47
2019-05-14T03:57:50.009Z,84.95
2019-05-14T03:58:49.568Z,84.74
2019-05-14T03:59:50.172Z,84.84
2019-05-14T04:00:50.309Z,84.95
2019-05-14T04:01:51.085Z,85.16
2019-05-14T04:02:49.278Z,85.42
2019-05-14T04:03:50.319Z,84.81
2019-05-14T04:04:50.322Z,84.29
2019-05-14T04:05:49.868Z,84.19
2019-05-14T04:06:49.875Z,84.29
2019-05-14T04:07:50.326Z,83.42
2019-05-14T04:08:49.828Z,83.32
2019-05-14T04:09:49.662Z,83.32
2019-05-14T04:10:53.663Z,82.90
2019-05-14T04:11:50.355Z,83.84
2019-05-14T04:12:49.448Z,83.32
2019-05-14T04:13:49.808Z,82.87
2019-05-14T04:14:50.242Z,81.73
2019-05-14T04:15:49.933Z,81.73
2019-05-14T04:17:01.437Z,81.49
2019-05-14T04:17:50.471Z,81.24
2019-05-14T04:18:50.464Z,79.97
2019-05-14T04:19:49.884Z,79.55
2019-05-14T04:20:50.023Z,78.90
2019-05-14T04:21:49.268Z,78.31
2019-05-14T04:22:49.975Z,79.04
2019-05-14T04:23:51.031Z,78.83
2019-05-14T04:24:49.889Z,78.69
2019-05-14T04:25:49.871Z,77.87
2019-05-14T04:26:58.158Z,77.62
2019-05-14T04:27:49.921Z,76.90
2019-05-14T04:28:49.820Z,77.28
2019-05-14T04:29:49.809Z,76.66
2019-05-14T04:30:49.409Z,76.32
2019-05-14T04:31:50.203Z,75.29
2019-05-14T04:32:50.591Z,75.39
2019-05-14T04:33:50.035Z,74.84
2019-05-14T04:34:49.886Z,74.19
2019-05-14T04:35:49.272Z,73.74
2019-05-14T04:36:50.263Z,73.16
2019-05-14T04:37:49.614Z,72.30
2019-05-14T04:38:54.111Z,72.30
2019-05-14T04:39:50.597Z,72.17
2019-05-14T04:40:49.488Z,71.34
2019-05-14T04:41:49.740Z,71.75
2019-05-14T04:42:50.376Z,71.55
2019-05-14T04:43:50.031Z,70.94
2019-05-14T04:44:50.252Z,70.79
2019-05-14T04:45:49.719Z,70.79
2019-05-14T04:46:49.538Z,70.90
2019-05-14T04:47:49.779Z,70.46
2019-05-14T04:48:50.610Z,70.25
2019-05-14T04:49:50.511Z,69.94
2019-05-14T04:50:49.679Z,70.04
2019-05-14T04:51:50.213Z,70.04
2019-05-14T04:52:49.590Z,69.32
2019-05-14T04:53:49.870Z,70.28
2019-05-14T04:54:49.967Z,70.94
2019-05-14T04:55:49.560Z,71.21
2019-05-14T04:56:50.851Z,71.24
2019-05-14T04:57:50.051Z,71.21
2019-05-14T04:58:49.645Z,70.36
2019-05-14T04:59:49.363Z,70.59
2019-05-14T05:00:49.979Z,70.87
2019-05-14T05:01:49.530Z,69.94
2019-05-14T05:02:49.748Z,71.04
2019-05-14T05:03:50.424Z,72.27
2019-05-14T05:04:50.772Z,72.72
2019-05-14T05:05:50.034Z,72.27
2019-05-14T05:06:49.949Z,71.86
2019-05-14T05:07:49.389Z,70.97
2019-05-14T05:08:49.909Z,70.42
2019-05-14T05:09:50.216Z,69.29
2019-05-14T05:10:49.496Z,69.37
2019-05-14T05:11:49.800Z,69.16
2019-05-14T05:12:49.254Z,68.44
2019-05-14T05:13:48.788Z,67.69
2019-05-14T05:14:49.279Z,67.59
2019-05-14T05:15:48.804Z,67.62
2019-05-14T05:16:49.115Z,67.86
2019-05-14T05:17:52.616Z,69.32
2019-05-14T05:18:49.241Z,71.11
2019-05-14T05:19:51.471Z,71.21
2019-05-14T05:20:50.589Z,71.11
2019-05-14T05:21:48.349Z,71.41
2019-05-14T05:22:48.654Z,70.87
2019-05-14T05:23:49.305Z,69.91
2019-05-14T05:24:48.592Z,70.29
2019-05-14T05:25:49.059Z,69.16
2019-05-14T05:26:48.660Z,69.23
2019-05-14T05:27:48.813Z,68.07
2019-05-14T05:29:02.864Z,68.24
2019-05-14T05:29:49.263Z,66.91
2019-05-14T05:30:49.083Z,66.19
2019-05-14T05:31:48.877Z,65.55
2019-05-14T05:32:49.448Z,66.27
2019-05-14T05:33:48.954Z,66.27
2019-05-14T05:34:48.433Z,65.93
2019-05-14T05:35:48.675Z,64.18
2019-05-14T05:36:48.655Z,65.37
2019-05-14T05:37:49.095Z,65.55
2019-05-14T05:38:49.101Z,66.27
2019-05-14T05:39:49.123Z,65.75
2019-05-14T05:40:48.661Z,65.52
2019-05-14T05:41:49.184Z,64.90
2019-05-14T05:42:49.031Z,64.16
2019-05-14T05:43:48.492Z,64.29
2019-05-14T05:44:48.460Z,63.88
2019-05-14T05:45:48.654Z,65.75
2019-05-14T05:46:49.452Z,67.52
2019-05-14T05:47:57.812Z,67.94
2019-05-14T05:48:49.046Z,66.40
2019-05-14T05:49:48.752Z,67.08
2019-05-14T05:50:48.579Z,65.86
2019-05-14T05:51:48.475Z,66.06
2019-05-14T05:52:49.838Z,65.93
2019-05-14T05:53:48.492Z,66.06
2019-05-14T05:54:48.946Z,65.52
2019-05-14T05:55:48.567Z,66.37
2019-05-14T05:56:48.246Z,67.43
2019-05-14T05:57:49.273Z,67.52
2019-05-14T05:58:48.947Z,67.76
2019-05-14T05:59:48.596Z,67.43
2019-05-14T06:00:49.782Z,66.67
2019-05-14T06:01:50.275Z,65.21
2019-05-14T06:02:48.912Z,65.28
2019-05-14T06:03:49.176Z,64.13
2019-05-14T06:04:48.123Z,64.06
2019-05-14T06:05:49.267Z,64.61
2019-05-14T06:06:48.226Z,63.82
2019-05-14T06:07:48.346Z,64.54
2019-05-14T06:08:49.142Z,64.16
2019-05-14T06:09:48.426Z,63.85
2019-05-14T06:10:49.023Z,63.85
2019-05-14T06:11:48.756Z,64.09
2019-05-14T06:12:49.065Z,65.11
2019-05-14T06:13:48.487Z,64.87
2019-05-14T06:14:48.707Z,63.75
2019-05-14T06:15:51.453Z,65.69
2019-05-14T06:16:48.918Z,64.87
2019-05-14T06:17:49.256Z,65.62
2019-05-14T06:18:48.361Z,64.47
2019-05-14T06:19:48.666Z,63.82
2019-05-14T06:20:49.395Z,63.59
2019-05-14T06:21:49.089Z,62.63
2019-05-14T06:22:48.977Z,61.69
2019-05-14T06:23:48.962Z,61.10
2019-05-14T06:24:48.523Z,61.95
2019-05-14T06:25:49.086Z,63.07
2019-05-14T06:26:48.966Z,61.28
2019-05-14T06:27:48.567Z,61.08
2019-05-14T06:28:48.828Z,60.69
2019-05-14T06:29:48.965Z,60.77
2019-05-14T06:30:48.378Z,60.72
2019-05-14T06:31:49.527Z,61.75
2019-05-14T06:32:48.778Z,61.00
2019-05-14T06:33:48.598Z,61.21
2019-05-14T06:34:48.920Z,61.61
2019-05-14T06:35:48.581Z,60.64
2019-05-14T06:36:48.532Z,59.59
2019-05-14T06:37:49.030Z,58.57
2019-05-14T06:38:49.471Z,58.57
2019-05-14T06:39:48.442Z,59.00
2019-05-14T06:40:49.020Z,59.52
2019-05-14T06:41:48.983Z,59.85
2019-05-14T06:42:48.597Z,59.69
2019-05-14T06:43:48.709Z,58.95
2019-05-14T06:44:49.296Z,59.03
2019-05-14T06:45:49.509Z,56.96
2019-05-14T06:46:48.705Z,56.63
2019-05-14T06:47:48.735Z,56.22
2019-05-14T06:48:48.558Z,56.22
2019-05-14T06:49:48.775Z,56.02
2019-05-14T06:50:50.211Z,56.15
2019-05-14T06:51:48.946Z,55.84
2019-05-14T06:52:49.188Z,56.88
2019-05-14T06:53:49.596Z,56.48
2019-05-14T06:54:49.688Z,57.01
2019-05-14T06:55:48.381Z,57.83
2019-05-14T06:56:48.834Z,58.03
2019-05-14T06:57:48.018Z,57.96
2019-05-14T06:58:49.055Z,57.14
2019-05-14T06:59:48.388Z,56.43
2019-05-14T07:00:49.331Z,57.04
2019-05-14T07:01:48.944Z,56.94
2019-05-14T07:02:49.141Z,56.84
2019-05-14T07:03:48.901Z,56.58
2019-05-14T07:04:48.438Z,55.35
2019-05-14T07:05:49.275Z,55.76
2019-05-14T07:06:48.534Z,55.07
2019-05-14T07:07:49.375Z,55.18
2019-05-14T07:08:48.637Z,56.12
2019-05-14T07:09:48.803Z,57.14
2019-05-14T07:10:48.589Z,56.32
2019-05-14T07:11:49.157Z,56.84
2019-05-14T07:12:49.711Z,56.66
2019-05-14T07:13:49.068Z,57.86
2019-05-14T07:14:48.205Z,57.21
2019-05-14T07:15:49.003Z,56.27
2019-05-14T07:16:48.507Z,57.06
2019-05-14T07:17:48.860Z,55.13
2019-05-14T07:18:53.016Z,54.28
2019-05-14T07:19:49.070Z,53.98
2019-05-14T07:20:48.502Z,54.18
2019-05-14T07:21:49.218Z,55.05
2019-05-14T07:22:48.364Z,55.05
2019-05-14T07:23:49.015Z,55.56
2019-05-14T07:24:49.493Z,56.37
2019-05-14T07:25:48.304Z,54.92
2019-05-14T07:26:49.425Z,54.72
2019-05-14T07:27:49.016Z,54.41
2019-05-14T07:28:48.801Z,54.00
2019-05-14T07:29:49.244Z,54.11
2019-05-14T07:30:48.548Z,54.26
2019-05-14T07:31:48.966Z,53.22
2019-05-14T07:32:48.475Z,54.08
2019-05-14T07:33:49.419Z,55.13
2019-05-14T07:34:48.180Z,55.41
2019-05-14T07:35:48.819Z,55.41
2019-05-14T07:36:49.113Z,54.79
2019-05-14T07:37:48.844Z,53.98
2019-05-14T07:38:48.961Z,53.55
2019-05-14T07:39:48.675Z,53.85
2019-05-14T07:40:49.223Z,52.81
2019-05-14T07:41:48.353Z,53.24
2019-05-14T07:42:48.718Z,53.88
2019-05-14T07:43:48.319Z,54.74
2019-05-14T07:44:48.499Z,55.87
2019-05-14T07:45:49.110Z,56.07
2019-05-14T07:46:48.347Z,55.20
2019-05-14T07:47:49.183Z,54.51
2019-05-14T07:49:03.921Z,54.08
2019-05-14T07:49:48.979Z,54.92
2019-05-14T07:50:51.239Z,55.74
2019-05-14T07:51:48.165Z,56.42
2019-05-14T07:52:49.561Z,54.16
2019-05-14T07:53:48.818Z,53.04
2019-05-14T07:54:48.123Z,54.64
2019-05-14T07:55:49.088Z,53.59
2019-05-14T07:56:49.798Z,53.11
2019-05-14T07:57:48.104Z,54.13
2019-05-14T07:58:48.856Z,53.83
2019-05-14T07:59:48.430Z,54.03
2019-05-14T08:00:48.958Z,53.83
2019-05-14T08:01:48.943Z,53.32
2019-05-14T08:02:48.925Z,54.36
2019-05-14T08:03:48.931Z,54.90
2019-05-14T08:04:48.615Z,55.38
2019-05-14T08:05:48.285Z,54.05
2019-05-14T08:06:48.612Z,54.33
2019-05-14T08:07:48.104Z,53.63
2019-05-14T08:08:48.992Z,53.72
2019-05-14T08:09:47.963Z,54.05
2019-05-14T08:10:48.619Z,54.13
2019-05-14T08:11:48.036Z,53.83
2019-05-14T08:12:48.499Z,54.24
2019-05-14T08:13:48.697Z,55.15
2019-05-14T08:15:08.553Z,53.90
2019-05-14T08:15:49.044Z,53.59
2019-05-14T08:16:48.741Z,52.89
2019-05-14T08:17:48.203Z,53.19
2019-05-14T08:18:48.484Z,53.19
2019-05-14T08:19:46.424Z,53.83
2019-05-14T08:20:48.422Z,54.94
2019-05-14T08:21:48.129Z,54.26
2019-05-14T08:22:48.833Z,54.05
2019-05-14T08:23:48.126Z,53.96
2019-05-14T08:24:48.725Z,55.00
2019-05-14T08:25:48.162Z,55.10
2019-05-14T08:26:48.550Z,55.20
2019-05-14T08:27:48.206Z,54.97
2019-05-14T08:28:48.629Z,54.13
2019-05-14T08:29:48.625Z,53.59
2019-05-14T08:30:46.314Z,52.86
2019-05-14T08:31:48.619Z,52.05
2019-05-14T08:32:46.292Z,52.33
2019-05-14T08:33:48.550Z,51.18
2019-05-14T08:34:48.010Z,51.01
2019-05-14T08:35:48.662Z,51.95
2019-05-14T08:36:48.238Z,52.84
2019-05-14T08:37:46.233Z,52.00
2019-05-14T08:38:47.353Z,52.35
2019-05-14T08:39:48.688Z,53.78
2019-05-14T08:40:48.655Z,52.86
2019-05-14T08:41:56.028Z,52.15
2019-05-14T08:42:49.036Z,52.35
2019-05-14T08:43:48.671Z,52.35
2019-05-14T08:44:50.315Z,52.08
2019-05-14T08:45:48.488Z,51.62
2019-05-14T08:46:48.161Z,50.70
2019-05-14T08:47:48.189Z,52.00
2019-05-14T08:48:46.112Z,50.37
2019-05-14T08:49:49.984Z,49.54
2019-05-14T08:50:48.211Z,48.72
2019-05-14T08:51:46.081Z,48.34
2019-05-14T08:52:48.169Z,48.80
2019-05-14T08:53:49.749Z,50.55
2019-05-14T08:54:46.049Z,52.00
2019-05-14T08:55:48.459Z,52.94
2019-05-14T08:56:46.039Z,52.33
2019-05-14T08:57:48.669Z,52.35
2019-05-14T08:58:46.011Z,52.45
2019-05-14T08:59:48.314Z,53.09
2019-05-14T09:00:48.091Z,52.96
2019-05-14T09:01:58.511Z,51.51
2019-05-14T09:02:48.571Z,52.50
2019-05-14T09:03:48.858Z,52.17
2019-05-14T09:04:52.646Z,51.95
2019-05-14T09:05:48.996Z,50.32
2019-05-14T09:06:45.919Z,50.73
2019-05-14T09:07:45.908Z,50.40
2019-05-14T09:08:45.903Z,50.17
2019-05-14T09:09:45.890Z,48.11
2019-05-14T09:10:45.877Z,46.19
2019-05-14T09:11:47.454Z,46.23
2019-05-14T09:12:45.859Z,46.68
2019-05-14T09:13:45.844Z,49.02
2019-05-14T09:14:48.113Z,49.25
2019-05-14T09:15:45.823Z,50.06
2019-05-14T09:16:47.677Z,50.47
2019-05-14T09:17:48.452Z,49.53
2019-05-14T09:18:45.789Z,50.06
2019-05-14T09:19:58.823Z,50.78
2019-05-14T09:20:48.855Z,49.00
2019-05-14T09:21:45.756Z,46.53
2019-05-14T09:22:45.746Z,43.79
2019-05-14T09:23:48.031Z,41.56
2019-05-14T09:24:45.724Z,42.27
2019-05-14T09:25:49.315Z,42.14
2019-05-14T09:26:48.328Z,43.65
2019-05-14T09:27:45.692Z,43.32
2019-05-14T09:28:48.001Z,43.35
2019-05-14T09:29:45.681Z,45.52
2019-05-14T09:30:45.660Z,44.53
2019-05-14T09:31:45.658Z,44.02
2019-05-14T09:32:45.647Z,43.91
2019-05-14T09:33:45.630Z,45.21
2019-05-14T09:34:48.478Z,42.37
2019-05-14T09:35:45.616Z,44.81
2019-05-14T09:36:45.595Z,44.68
2019-05-14T09:37:45.585Z,44.30
2019-05-14T09:38:45.581Z,45.01
2019-05-14T09:39:45.578Z,45.21
2019-05-14T09:40:45.557Z,44.83
2019-05-14T09:41:45.553Z,45.15
2019-05-14T09:42:45.530Z,46.37
2019-05-14T09:43:45.518Z,45.36
2019-05-14T09:44:45.522Z,44.95
2019-05-14T09:45:45.497Z,45.24
2019-05-14T09:46:45.487Z,45.26
2019-05-14T09:47:50.020Z,45.67
2019-05-14T09:48:48.737Z,46.40
2019-05-14T09:49:45.456Z,46.93
2019-05-14T09:50:45.466Z,48.15
2019-05-14T09:51:45.434Z,47.92
2019-05-14T09:52:45.423Z,46.50
2019-05-14T09:53:45.423Z,47.19
2019-05-14T09:54:45.404Z,46.45
2019-05-14T09:55:45.391Z,46.45
2019-05-14T09:56:45.394Z,46.53
2019-05-14T09:57:45.372Z,45.44
2019-05-14T09:58:45.361Z,45.62
2019-05-14T09:59:45.359Z,45.01
2019-05-14T10:00:45.337Z,43.59
2019-05-14T10:01:45.329Z,46.33
2019-05-14T10:02:45.338Z,45.01
2019-05-14T10:03:45.331Z,45.21
2019-05-14T10:04:45.295Z,45.80
2019-05-14T10:05:45.305Z,46.19
2019-05-14T10:06:45.276Z,45.98
2019-05-14T10:07:45.269Z,45.98
2019-05-14T10:08:45.261Z,44.79
2019-05-14T10:09:45.242Z,44.02
2019-05-14T10:10:45.233Z,44.87
2019-05-14T10:11:45.242Z,46.28
2019-05-14T10:12:55.965Z,45.89
2019-05-14T10:13:48.230Z,45.59
2019-05-14T10:14:45.208Z,45.89
2019-05-14T10:15:45.178Z,45.87
2019-05-14T10:16:45.168Z,45.84
2019-05-14T10:17:45.171Z,45.95
2019-05-14T10:18:45.147Z,44.83
2019-05-14T10:19:45.143Z,43.79
2019-05-14T10:20:46.232Z,45.01
2019-05-14T10:21:45.115Z,43.98
2019-05-14T10:22:45.102Z,43.77
2019-05-14T10:23:45.103Z,42.63
2019-05-14T10:24:45.081Z,42.35
2019-05-14T10:25:45.070Z,43.14
2019-05-14T10:26:45.068Z,41.84
2019-05-14T10:27:45.049Z,42.08
2019-05-14T10:28:45.038Z,43.00
2019-05-14T10:29:45.037Z,42.39
2019-05-14T10:30:45.016Z,42.61
2019-05-14T10:31:45.005Z,43.30
2019-05-14T10:32:45.003Z,42.08
2019-05-14T10:33:44.983Z,42.49
2019-05-14T10:34:44.974Z,43.20
2019-05-14T10:35:44.972Z,41.38
2019-05-14T10:36:44.952Z,42.90
2019-05-14T10:37:44.941Z,41.66
2019-05-14T10:38:44.964Z,40.86
2019-05-14T10:39:44.922Z,41.05
2019-05-14T10:40:44.910Z,41.05
2019-05-14T10:41:44.912Z,40.44
2019-05-14T10:42:44.887Z,40.34
2019-05-14T10:43:44.876Z,39.93
2019-05-14T10:44:44.881Z,41.05
2019-05-14T10:45:44.855Z,42.27
2019-05-14T10:46:44.844Z,43.38
2019-05-14T10:47:44.845Z,39.62
2019-05-14T10:48:44.832Z,41.07
2019-05-14T10:49:44.813Z,41.66
2019-05-14T10:50:56.106Z,40.75
2019-05-14T10:51:47.889Z,42.86
2019-05-14T10:52:44.780Z,41.93
2019-05-14T10:53:44.781Z,42.43
2019-05-14T10:54:55.354Z,40.79
2019-05-14T10:55:45.748Z,40.77
2019-05-14T10:56:44.780Z,39.35
2019-05-14T10:57:44.728Z,40.18
2019-05-14T10:58:44.717Z,40.09
2019-05-14T10:59:44.714Z,40.93
2019-05-14T11:00:44.703Z,40.52
2019-05-14T11:01:44.684Z,40.72
2019-05-14T11:02:44.687Z,40.62
2019-05-14T11:03:44.662Z,40.93
2019-05-14T11:04:44.650Z,40.64
2019-05-14T11:05:44.653Z,40.93
2019-05-14T11:06:44.629Z,40.83
2019-05-14T11:07:44.617Z,40.42
2019-05-14T11:08:44.617Z,39.83
2019-05-14T11:09:44.596Z,40.23
2019-05-14T11:10:44.590Z,41.24
2019-05-14T11:11:44.671Z,39.39
2019-05-14T11:12:44.566Z,39.39
2019-05-14T11:13:44.553Z,40.20
2019-05-14T11:14:44.553Z,38.98
2019-05-14T11:15:44.531Z,39.79
2019-05-14T11:16:44.522Z,38.76
2019-05-14T11:17:44.529Z,38.45
2019-05-14T11:18:44.502Z,38.15
2019-05-14T11:19:44.490Z,37.13
2019-05-14T11:20:44.495Z,39.00
2019-05-14T11:21:44.468Z,38.59
2019-05-14T11:22:44.460Z,37.68
2019-05-14T11:23:44.456Z,38.61
2019-05-14T11:24:44.444Z,39.53
2019-05-14T11:25:44.426Z,39.20
2019-05-14T11:26:44.488Z,40.62
2019-05-14T11:27:44.405Z,41.62
2019-05-14T11:28:44.399Z,40.99
2019-05-14T11:29:44.394Z,39.67
2019-05-14T11:30:44.372Z,39.39
2019-05-14T11:31:44.363Z,39.61
2019-05-14T11:32:44.379Z,38.61
2019-05-14T11:33:44.346Z,39.32
2019-05-14T11:34:44.332Z,38.92
2019-05-14T11:35:44.330Z,39.81
2019-05-14T11:36:44.309Z,38.98
2019-05-14T11:37:44.310Z,38.35
2019-05-14T11:38:44.302Z,38.88
2019-05-14T11:39:44.277Z,39.59
2019-05-14T11:40:44.267Z,39.18
2019-05-14T11:41:44.270Z,41.11
2019-05-14T11:42:44.246Z,39.18
2019-05-14T11:43:44.237Z,39.26
2019-05-14T11:44:44.236Z,39.65
2019-05-14T11:45:44.217Z,39.84
2019-05-14T11:46:56.284Z,37.91
2019-05-14T11:47:45.208Z,37.93
2019-05-14T11:48:44.183Z,39.25
2019-05-14T11:49:44.173Z,39.65
2019-05-14T11:50:44.180Z,39.96
2019-05-14T11:52:01.087Z,38.93
2019-05-14T11:52:45.140Z,37.83
2019-05-14T11:53:44.141Z,38.74
2019-05-14T11:54:44.119Z,39.75
2019-05-14T11:55:44.108Z,39.64
2019-05-14T11:56:44.119Z,39.73
2019-05-14T11:57:44.084Z,39.15
2019-05-14T11:58:44.073Z,39.53
2019-05-14T11:59:44.073Z,38.03
2019-05-14T12:00:44.053Z,40.08
2019-05-14T12:01:44.040Z,39.78
2019-05-14T12:02:44.049Z,40.08
2019-05-14T12:03:44.018Z,39.69
2019-05-14T12:04:44.008Z,39.10
2019-05-14T12:05:44.008Z,39.93
2019-05-14T12:06:43.986Z,41.25
2019-05-14T12:07:43.976Z,40.14
2019-05-14T12:08:43.973Z,40.01
2019-05-14T12:09:43.966Z,41.03
2019-05-14T12:10:43.947Z,41.11
2019-05-14T12:11:43.944Z,39.87
2019-05-14T12:12:43.922Z,39.57
2019-05-14T12:13:43.934Z,38.96
2019-05-14T12:14:43.910Z,39.75
2019-05-14T12:15:43.894Z,38.72
2019-05-14T12:16:43.880Z,37.91
2019-05-14T12:17:43.881Z,38.43
2019-05-14T12:18:43.858Z,38.95
2019-05-14T12:19:44.284Z,38.23
2019-05-14T12:20:43.858Z,38.23
2019-05-14T12:21:58.965Z,37.73
2019-05-14T12:22:44.824Z,37.95
2019-05-14T12:23:43.834Z,38.96
2019-05-14T12:24:43.793Z,40.18
2019-05-14T12:25:43.782Z,37.32
2019-05-14T12:26:43.788Z,37.62
2019-05-14T12:27:43.762Z,38.13
2019-05-14T12:28:43.761Z,39.33
2019-05-14T12:29:43.742Z,38.12
2019-05-14T12:30:43.728Z,39.73
2019-05-14T12:31:43.719Z,39.64
2019-05-14T12:32:43.719Z,37.99
2019-05-14T12:33:43.696Z,38.70
2019-05-14T12:34:43.695Z,36.87
2019-05-14T12:35:43.676Z,35.66
2019-05-14T12:36:43.663Z,35.60
2019-05-14T12:37:43.653Z,36.30
2019-05-14T12:38:43.661Z,36.91
2019-05-14T12:39:43.630Z,37.71
2019-05-14T12:40:43.637Z,36.69
2019-05-14T12:41:43.614Z,37.10
2019-05-14T12:42:43.605Z,37.30
2019-05-14T12:43:44.064Z,36.59
2019-05-14T12:44:43.585Z,36.27
2019-05-14T12:45:43.569Z,37.59
2019-05-14T12:46:43.571Z,37.55
2019-05-14T12:47:43.554Z,38.16
2019-05-14T12:48:43.532Z,35.82
2019-05-14T12:49:43.521Z,37.07
2019-05-14T12:50:43.527Z,36.29
2019-05-14T12:51:43.512Z,36.82
2019-05-14T12:52:43.503Z,38.15